La Louisiana — WDC8128 — position and weather

sailwx.info

Track history (hours):
 
Tides and Currents Weather Stations Pressure Air Temp Water Temp Dewpoint Dewpoint Depression Visibility Wind Speed Wind Dir Waves Ship Positions

La Louisiana

Owner: Louisiana Tugs, LLC, Cutoff, LA. More information available from US FCC via Universal Licensing System and Coast Guard Vessel Documentation Center.

Last reported at 2015-Feb-21 06:33 UTC. Time now 2015-Mar-31 12:38 UTC.
Position N 29°26' W 091°20'.
Warning: this ship's position is 38 days out of date.

Length 51 m; draft 3.5 m.

Type: Cargo ship. MMSI: 367082060.

Date/timePositionNaut miles runAvg speedWind from/ knotsBaromVisibWave heightAir tempDewpointWater temp
2015-Feb-21 06:33N 29°26' W 091°20'8 7.8
2015-Feb-21 05:34N 29°32' W 091°16'7 6.7
2015-Feb-21 04:33N 29°39' W 091°16'6 6.1
2015-Feb-21 03:34N 29°39' W 091°23'6 5.6
2015-Feb-21 02:28N 29°41' W 091°29'8 6.5
2015-Feb-21 01:13N 29°46' W 091°37'15 0.4
2015-Feb-19 13:34N 29°39' W 091°22'7 6.6
2015-Feb-19 12:34N 29°39' W 091°14'5 5.4
2015-Feb-19 11:33N 29°33' W 091°14'5 5.2
2015-Feb-19 10:34N 29°29' W 091°16'6 5.6
2015-Feb-19 09:33N 29°25' W 091°21'7 7.1
2015-Feb-19 08:33N 29°19' W 091°26'  
2015-Feb-12 07:31N 29°03' W 090°15'0 0.0
2015-Feb-12 05:15N 29°03' W 090°15'  
Track history (hours):
 
Tides and Currents Weather Stations Pressure Air Temp Water Temp Dewpoint Dewpoint Depression Visibility Wind Speed Wind Dir Waves Ship Positions

La Louisiana

Owner: Louisiana Tugs, LLC, Cutoff, LA. More information available from US FCC via Universal Licensing System and Coast Guard Vessel Documentation Center.

Last reported at 2015-Feb-21 06:33 UTC. Time now 2015-Mar-31 12:38 UTC.
Position N 29°26' W 091°20'.
Warning: this ship's position is 38 days out of date.

Length 51 m; draft 3.5 m.

Type: Cargo ship. MMSI: 367082060.

Date/timePositionNaut miles runAvg speedWind from/ knotsBaromVisibWave heightAir tempDewpointWater temp
2015-Feb-21 06:33N 29°26' W 091°20'8 7.8
2015-Feb-21 05:34N 29°32' W 091°16'7 6.7
2015-Feb-21 04:33N 29°39' W 091°16'6 6.1
2015-Feb-21 03:34N 29°39' W 091°23'6 5.6
2015-Feb-21 02:28N 29°41' W 091°29'8 6.5
2015-Feb-21 01:13N 29°46' W 091°37'15 0.4
2015-Feb-19 13:34N 29°39' W 091°22'7 6.6
2015-Feb-19 12:34N 29°39' W 091°14'5 5.4
2015-Feb-19 11:33N 29°33' W 091°14'5 5.2
2015-Feb-19 10:34N 29°29' W 091°16'6 5.6
2015-Feb-19 09:33N 29°25' W 091°21'7 7.1
2015-Feb-19 08:33N 29°19' W 091°26'  
2015-Feb-12 07:31N 29°03' W 090°15'0 0.0
2015-Feb-12 05:15N 29°03' W 090°15'  

Dump ship's entire track history